SondeTracker

Meteorological Radiosondes Database

Operations
Radiosondes Table of last 48 hours (359)
Number Type Last Frame [UTC] φ λ Course Speed Altitude Climbing Launch Site Frequency Nearest City Distance from QTH Status
S4620920 RS41 2020-12-04 10:39:00 61.1901 26.5496 42 ° 65 km/h 4652 m -6.5 m/s Vaisala Oyj (FI) 402.000 MHz Heinola (FI) 0.00 km UNKNOWN
S1620450 RS41 2020-12-04 10:13:43 54.157 7.50853 10 ° 54 km/h 984 m -2.7 m/s Meppen (DE) 405.10 MHz Norderney (DE) 0.00 km UNKNOWN
P3410275 RS41 2020-12-04 09:53:00 49.0794 13.0511 10 ° 50 km/h 1358 m -4.7 m/s Hohenpeissenberg (DE) 402.90 MHz Viechtach (DE) 0.00 km UNKNOWN
D17002365 DFM09 2020-12-04 09:45:00 48.9453 12.0533 285 ° 30 km/h 645 m -4.0 m/s Altenstadt (DE) 404.311 MHz Regensburg (DE) 0.00 km FOUND
S0430319 RS41 2020-12-04 08:09:40 52.2865 11.8297 330 ° 39 km/h 183 m -3.6 m/s Meiningen (DE) 402.30 MHz Burg (DE) 0.00 km UNKNOWN
R3330526 RS41 2020-12-04 07:58:14 51.2883 8.58453 3 ° 44 km/h 837 m -3.3 m/s Idar-Oberstein (DE) 402.70 MHz Olsberg (DE) 0.00 km UNKNOWN
S2270766 RS41 2020-12-04 07:54:30 50.4064 10.7908 9 ° 41 km/h 861 m -2.8 m/s Stuttgart (DE) 404.50 MHz Hildburghausen (DE) 0.00 km UNKNOWN
S1810583 RS41 2020-12-04 07:33:45 50.9329 15.6778 12 ° 70 km/h 1684 m -11.8 m/s Praha (CZ) 404.20 MHz Jelenia Góra (PL) 0.00 km UNKNOWN
S2260975 RS41 2020-12-04 07:31:30 52.932 7.84663 323 ° 31 km/h 104 m -5.7 m/s Essen (DE) 405.30 MHz Friesoythe (DE) 0.00 km UNKNOWN
S2331372 RS41 2020-12-04 07:23:30 51.229 -1.64237 82 ° 24 km/h 10293 m -2.3 m/s Larkhill (GB) 404.40 MHz Salisbury (GB) 0.00 km UNKNOWN
S1031095 RS41 2020-12-04 07:13:00 61.6193 24.4082 337 ° 41 km/h 498 m -10.0 m/s Jokioinen (FI) 403.000 MHz Orivesi (FI) 0.00 km UNKNOWN
R2350375 RS41 2020-12-04 07:10:44 50.5771 12.8669 13 ° 37 km/h 986 m -4.5 m/s Kümmersbruck (DE) 404.90 MHz Elterlein (DE) 0.00 km UNKNOWN
S3050739 RS41 2020-12-04 07:10:32 38.334 24.189 58 ° 56 km/h 13642 m -24.3 m/s Athens (GR) 402.740 MHz 0.00 km UNKNOWN
R3021225 RS41 2020-12-04 07:06:36 54.0274 10.5571 312 ° 31 km/h 160 m -4.2 m/s Bergen (DE) 405.70 MHz Bad Schwartau (DE) 0.00 km UNKNOWN
R5130393 RS41 2020-12-04 07:03:16 43.0899 23.7115 336 ° 17 km/h 2033 m -7.2 m/s Sofia (BG) 405.30 MHz Cherven Bryag (BG) 0.00 km UNKNOWN
S3131577 RS41 2020-12-04 07:01:18 54.0479 7.6143 339 ° 78 km/h 432 m -2.8 m/s Meppen (DE) 404.50 MHz Norderney (DE) 0.00 km LOST
S1920597 RS41 2020-12-04 07:00:00 54.4895 -5.26186 85 ° 50 km/h 18037 m -12.1 m/s Castor Bay (IE) 404.201 MHz Donaghadee (IE) 0.00 km UNKNOWN
S2260828 RS41 2020-12-04 06:57:37 53.1556 15.3346 297 ° 28 km/h 138 m -7.8 m/s Lindenberg (DE) 405.10 MHz Choszczno (PL) 0.00 km FOUND
R3330226 RS41 2020-12-04 06:37:36 48.6756 11.854 335 ° 28 km/h 675 m -3.0 m/s Altenstadt (DE) 402.50 MHz Mainburg (DE) 0.00 km UNKNOWN
ME022238E M10 2020-12-04 06:35:05 46.6575 15.3715 60 ° 30 km/h 1032 m -12.9 m/s Ljubljana (SI) 403.000 MHz Maribor (SI) 0.00 km UNKNOWN
R2350560 RS41 2020-12-04 06:26:47 50.6537 13.3455 7 ° 43 km/h 1090 m -3.8 m/s Kümmersbruck (DE) 402.70 MHz Olbernhau (DE) 0.00 km UNKNOWN
S2270092 RS41 2020-12-04 06:26:05 49.0157 12.2874 1 ° 37 km/h 1013 m -5.7 m/s München (DE) 402.30 MHz Neutraubling (DE) 0.00 km NEED ATTENTION
ME0122781 M10 2020-12-04 06:11:48 45.3309 20.5379 16 ° 52 km/h 2182 m -10.2 m/s Belgrade (RS) 402.800 MHz Zrenjanin (RS) 0.00 km UNKNOWN
S2411005 RS41 2020-12-04 05:26:01 48.1939 16.1356 297 ° 39 km/h 443 m -0.8 m/s Graz (AT) 404.70 MHz Perchtoldsdorf (AT) 0.00 km UNKNOWN
R2520716 RS41 2020-12-04 05:15:36 48.0871 12.3126 4 ° 30 km/h 721 m -4.3 m/s Innsbruck (AT) 405.50 MHz Wasserburg am Inn (DE) 0.00 km UNKNOWN
S2420866 RS41 2020-12-04 04:08:02 48.8481 14.8288 309 ° 2 km/h 546 m -0.4 m/s Linz (AT) 403.40 MHz Suchdol nad Lužnicí (CZ) 0.00 km UNKNOWN
R2821150 RS41 2020-12-04 03:59:30 57.0211 11.6134 320 ° 54 km/h 449 m -3.0 m/s Schleswig (DE) 402.50 MHz Varberg (SE) 0.00 km UNKNOWN
ME9722305 M10 2020-12-04 03:00:00 44.6643 7.23755 279 ° 2 km/h 1349 m -0.4 m/s Nîmes (FR) 402.001 MHz Cuneo (IT) 0.00 km UNKNOWN
S2830047 RS41-SG 2020-12-04 02:55:30 51.9639 1.58595 333 ° 35 km/h 1585 m -5.3 m/s Herstmonceux (GB) 404.80 MHz Norwich (GB) 0.00 km UNKNOWN
R1850206 RS41 2020-12-04 02:32:56 50.0408 17.6183 12 ° 83 km/h 3098 m -4.1 m/s Vienna (AT) 403.50 MHz Krnov (CZ) 0.00 km UNKNOWN
S0610786 RS41 2020-12-04 02:22:24 55.6284 8.6061 332 ° 56 km/h 927 m -2.3 m/s Norderney (DE) 404.10 MHz Varde (DK) 0.00 km UNKNOWN
R3660839 RS41 2020-12-04 02:20:33 48.0912 9.01088 344 ° 17 km/h 992 m -2.6 m/s Payerne (CH) 403.50 MHz Fridingen an der Donau (DE) 0.00 km UNKNOWN
S2260672 RS41 2020-12-04 02:10:16 53.8695 15.9948 343 ° 33 km/h 236 m -1.9 m/s Lindenberg (DE) 405.10 MHz Połczyn-Zdrój (PL) 0.00 km UNKNOWN
ME01228EF M10 2020-12-04 02:06:30 50.198 3.96044 12 ° 87 km/h 808 m -5.5 m/s Trappes (FR) 400.999 MHz Maubeuge (FR) 0.00 km UNKNOWN
S2440339 RS41 2020-12-04 02:04:30 -12.395 129.934 244 ° 24 km/h 1609 m -6.6 m/s Darwin (AU) 401.500 MHz Darwin (AU) 0.00 km UNKNOWN
R4840426 RS41 2020-12-04 02:01:30 46.1424 10.8926 112 ° 2 km/h 2668 m 0.1 m/s Milano-Linate (IT) 404.80 MHz Trento (IT) 0.00 km UNKNOWN
ME0122773 M10 2020-12-04 01:56:20 45.5374 20.894 355 ° 31 km/h 1971 m -10.0 m/s Belgrade (RS) 402.000 MHz Ciacova (RO) 0.00 km UNKNOWN
S3110411 RS41 2020-12-04 01:51:12 38.0243 -6.72156 101 ° 83 km/h 2221 m -3.9 m/s Lisbon (PT) 403.02 MHz Almendralejo (ES) 0.00 km UNKNOWN
S3540687 RS41 2020-12-04 01:47:00 45.1045 27.0893 348 ° 43 km/h 767 m -9.4 m/s Bucarest (RO) 403.921 MHz Făurei (RO) 0.00 km UNKNOWN
S2641438 RS41 2020-12-04 01:45:03 46.7343 14.4885 6 ° 4 km/h 1117 m -3.8 m/s Udine-Rivolto (IT) 404.00 MHz Sankt Veit an der Glan (AT) 0.00 km UNKNOWN
LMS6C888C LMS6 2020-12-04 01:45:00 37.4348 -77.1668 90 ° 69 km/h 3515 m -4.9 m/s Blacksburg [VA] (USA) 404.013 MHz 0.00 km UNKNOWN
S1440051 RS41 2020-12-04 01:43:30 53.8472 -0.30952 358 ° 20 km/h 2566 m -2.7 m/s Watnall (GB) 404.20 MHz Kingston-upon-Hull (GB) 0.00 km UNKNOWN
S1440343 RS41 2020-12-04 01:42:48 50.2069 -3.10312 15 ° 30 km/h 7645 m -16.8 m/s Camborne (GB) 405.70 MHz Exeter (GB) 0.00 km UNKNOWN
R2350513 RS41 2020-12-04 01:42:10 50.4048 13.6779 316 ° 31 km/h 643 m -7.7 m/s Kümmersbruck (DE) 402.70 MHz Postoloprty (CZ) 0.00 km UNKNOWN
S0441678 RS41 2020-12-04 01:42:00 55.3555 14.6839 16 ° 52 km/h 3071 m -2.1 m/s Greifswald (DE) 402.30 MHz Rønne (DK) 0.00 km UNKNOWN
R2411432 RS41-SG 2020-12-04 01:41:31 37.6607 14.2005 122 ° 24 km/h 716 m -3.5 m/s Trapani-Birgi (IT) 402.70 MHz Caltanissetta (IT) 0.00 km UNKNOWN
R5020868 RS41 2020-12-04 01:37:22 50.1387 21.6405 17 ° 50 km/h 3709 m -8.4 m/s Poprad (SK) 400.60 MHz Sędziszów Małopolski (PL) 0.00 km UNKNOWN
R4110127 RS41 2020-12-04 01:36:30 53.077 5.71577 349 ° 69 km/h 748 m -12.2 m/s De Bilt (NL) 403.90 MHz Sneek (NL) 0.00 km UNKNOWN
LMS6C5F6B LMS6 2020-12-04 01:35:30 40.9142 -89.7734 190 ° 107 km/h 9627 m -3.5 m/s Davenport [IA] (USA) 401.015 MHz 0.00 km UNKNOWN
S1220395 RS41 2020-12-04 01:35:30 -31.0314 137.457 68 ° 144 km/h 11969 m -14.2 m/s 401.501 MHz 0.00 km UNKNOWN
ME96231FD M10 2020-12-04 01:35:26 42.0138 10.3374 58 ° 22 km/h 2405 m -10.7 m/s Ajaccio (FR) MHz 0.00 km UNKNOWN
S1310243 RS41 2020-12-04 01:32:12 56.1129 19.1217 6 ° 80 km/h 1550 m -7.1 m/s Łeba (PL) 403.00 MHz 0.00 km UNKNOWN
R3870621 RS41 2020-12-04 01:29:06 45.0633 9.30558 278 ° 7 km/h 203 m -6.6 m/s Cuneo-Levaldigi (IT) 402.80 MHz Pavia (IT) 0.00 km UNKNOWN
ME0522B0F M10 2020-12-04 01:21:30 45.1833 1.6315 95 ° 56 km/h 2292 m -11.4 m/s Bordeaux (FR) 402.000 MHz Brive-la-Gaillarde (FR) 0.00 km UNKNOWN
P1920076 RS41 2020-12-04 01:21:14 50.6317 18.2163 15 ° 94 km/h 1724 m -11.3 m/s Prostějov (CZ) 402.10 MHz Ozimek (PL) 0.00 km FOUND
S3951181 RS41 2020-12-04 01:19:47 48.3757 20.2186 354 ° 65 km/h 1972 m -13.7 m/s Budapest (HU) 403.20 MHz Tornaľa (SK) 0.00 km UNKNOWN
S1030632 RS41-SG 2020-12-04 01:19:40 68.0634 28.656 37 ° 69 km/h 14912 m -35.8 m/s Sodankyla (FI) 404.00 MHz 0.00 km UNKNOWN
R3510345 RS41 2020-12-04 01:19:30 41.7729 14.2448 81 ° 41 km/h 4827 m -9.3 m/s Pratica di Mare (IT) 404.20 MHz Chieti (IT) 0.00 km UNKNOWN
S1350828 RS41 2020-12-04 01:19:30 44.5464 -122.455 68 ° 31 km/h 4971 m -8.7 m/s Salem [OR] (USA) 401.401 MHz 0.00 km UNKNOWN
R2411308 RS41 2020-12-04 01:18:40 54.0235 11.1985 327 ° 46 km/h 83 m -3.9 m/s Bergen (DE) 405.70 MHz Klütz (DE) 0.00 km UNKNOWN
R1020954 RS41 2020-12-04 01:17:08 43.6474 -0.097793 88 ° 72 km/h 1773 m -3.4 m/s Santander (ES) 401.501 MHz Mont-de-Marsan (FR) 0.00 km UNKNOWN
S0370126 RS41 2020-12-04 01:15:09 51.5794 11.7829 20 ° 61 km/h 715 m -3.9 m/s Meiningen (DE) 402.30 MHz Wettin-Löbejün (DE) 0.00 km FOUND
S0640836 RS41 2020-12-04 01:14:40 52.2484 17.9017 3 ° 70 km/h 870 m -8.2 m/s Wrocław (PL) 403.00 MHz Słupca (PL) 0.00 km UNKNOWN
R3250628 RS41 2020-12-04 01:14:00 46.7584 16.9331 6 ° 13 km/h 319 m -12.8 m/s Zagreb (HR) 402.00 MHz Pacsa (HU) 0.00 km UNKNOWN
R4350440 RS41 2020-12-04 01:14:00 -30.3669 -49.7624 51 ° 52 km/h 1843 m -11.8 m/s Porto Alegre (BR) 402.996 MHz 0.00 km UNKNOWN
R3330598 RS41 2020-12-04 01:12:52 50.9019 8.67561 12 ° 80 km/h 1258 m -5.5 m/s Idar-Oberstein (DE) 402.70 MHz Wetter (DE) 0.00 km UNKNOWN
S2840238 RS41-SG 2020-12-04 01:09:48 59.9409 25.6759 332 ° 43 km/h 666 m -11.7 m/s Tallinn (EE) 404.00 MHz Loksa (EE) 0.00 km UNKNOWN
S1230273 RS41 2020-12-04 01:09:30 -34.8041 139.696 77 ° 17 km/h 1601 m -6.1 m/s Adelaide (AU) 401.501 MHz Murray Bridge (AU) 0.00 km UNKNOWN
LMS60CB8B MK2LMS 2020-12-04 01:08:30 43.1029 -76.5688 76 ° 156 km/h 9643 m -7.8 m/s MHz Syracuse (IT) 0.00 km UNKNOWN
S1810563 RS41 2020-12-04 01:07:42 50.9337 15.5396 356 ° 74 km/h 1229 m -5.8 m/s Praha (CZ) 401.10 MHz Lubomierz (PL) 0.00 km FOUND
S2330354 RS41 2020-12-04 01:06:30 49.7116 10.6843 318 ° 24 km/h 507 m -4.0 m/s Stuttgart (DE) 404.50 MHz Schlüsselfeld (DE) 0.00 km UNKNOWN
S1050709 RS41 2020-12-04 01:06:00 -37.2233 146.481 77 ° 100 km/h 4705 m -7.9 m/s Melbourne (AU) 401.50 MHz Wangaratta (AU) 0.00 km UNKNOWN
S3220585 RS41 2020-12-04 01:05:24 52.731 24.5272 39 ° 74 km/h 8976 m -18.2 m/s Brest (BY) 405.30 MHz Pruzhany (BY) 0.00 km UNKNOWN
S0640419 RS41 2020-12-04 01:05:09 53.2763 21.9719 355 ° 67 km/h 766 m -14.1 m/s Legionowo (PL) 404.50 MHz Nowogród (PL) 0.00 km UNKNOWN
S3950999 RS41 2020-12-04 01:04:10 47.0447 20.8177 345 ° 59 km/h 383 m -15.6 m/s Szeged (HU) 402.30 MHz Túrkeve (HU) 0.00 km UNKNOWN
S0650585 RS41 2020-12-04 00:59:30 61.3465 24.351 323 ° 39 km/h 433 m -15.3 m/s Jokioinen (FI) 403.001 MHz Valkeakoski (FI) 0.00 km UNKNOWN
R4010550 2020-12-04 00:57:30 -22.7968 -43.1483 95 ° 37 km/h 10146 m -6.2 m/s Galeão (BR) 405.301 MHz 0.00 km UNKNOWN
LMS6C859D LMS6 2020-12-04 00:57:00 38.4348 -95.5191 114 ° 41 km/h 16935 m -9.5 m/s Topeka [KS] (USA) 400.261 MHz 0.00 km UNKNOWN
ME92223F0 M10 2020-12-04 00:54:28 43.8472 22.4693 359 ° 48 km/h 7014 m -18.4 m/s Niš (RS) 402.402 MHz Zaječar (RS) 0.00 km UNKNOWN
S0430652 RS41 2020-12-04 00:51:32 44.8877 12.546 80 ° 9 km/h 88 m -11.6 m/s San Pietro Capofiume (IT) 404.60 MHz Ravenna (IT) 0.00 km UNKNOWN
R3340480 RS41 2020-12-04 00:48:48 44.8069 15.9496 327 ° 24 km/h 793 m -12.4 m/s Zadar (HR) 403.00 MHz Bihać (BA) 0.00 km UNKNOWN
S2270131 RS41 2020-12-04 00:47:39 48.8259 12.6416 336 ° 30 km/h 1009 m -12.1 m/s München (DE) 402.30 MHz Straubing (DE) 0.00 km UNKNOWN
R0231483 RS41 2020-12-04 00:47:02 39.3226 10.1359 106 ° 54 km/h 14127 m -12.1 m/s Cagliari (IT) 402.80 MHz Quartu Sant Elena (IT) 0.00 km UNKNOWN
S2260913 RS41 2020-12-04 00:45:19 52.4197 8.0595 323 ° 26 km/h 144 m -8.4 m/s Essen (DE) 405.30 MHz Bramsche (DE) 0.00 km FOUND
S2040676 RS41 2020-12-04 00:37:38 59.6904 6.16368 26 ° 48 km/h 18214 m -47.8 m/s Stavanger (NO) 403.001 MHz 0.00 km UNKNOWN
R2410024 RS41 2020-12-04 00:34:34 25.3422 122.379 68 ° 133 km/h 14618 m -6.0 m/s New Taipei (TW) 400.30 MHz 0.00 km UNKNOWN
S1030166 RS41 2020-12-04 00:34:00 -32.6945 152.614 68 ° 15 km/h 18537 m -34.5 m/s 402.401 MHz Nelson Bay (AU) 0.00 km UNKNOWN
R1130828 RS41 2020-12-04 00:32:04 40.2364 -2.14134 102 ° 54 km/h 22274 m 5.7 m/s Madrid (ES) 403.00 MHz Cuenca (ES) 0.00 km UNKNOWN
ME0122771 M10 2020-12-03 23:51:40 45.1587 20.4678 6 ° 39 km/h 12337 m 4.5 m/s Belgrade (RS) MHz Opovo (RS) 0.00 km UNKNOWN
IMET88737 iMET 2020-12-03 23:41:22 51.5551 5.6404 33 ° 74 km/h 13075 m -8.7 m/s Beauvechain (BE) 402.998 MHz Helmond (NL) 0.00 km UNKNOWN
R4420685 RS41 2020-12-03 23:31:12 -36.7474 175.885 82 ° 31 km/h 2699 m -10.9 m/s Whenuapai (NZ) 403.001 MHz 0.00 km UNKNOWN
S3830928 RS41 2020-12-03 21:01:42 41.2449 17.0522 35 ° 52 km/h 12479 m -4.2 m/s Potenza (IT) 405.20 MHz Bari (IT) 0.00 km UNKNOWN
S2260491 RS41 2020-12-03 20:01:51 53.8898 15.8075 346 ° 37 km/h 207 m -3.0 m/s Lindenberg (DE) 405.10 MHz Świdwin (PL) 0.00 km UNKNOWN
R2350377 RS41 2020-12-03 19:38:07 50.2251 13.5735 1 ° 30 km/h 705 m -6.0 m/s Kümmersbruck (DE) 402.70 MHz Blšany (CZ) 0.00 km UNKNOWN
R2411306 RS41 2020-12-03 19:27:53 53.7245 11.7416 326 ° 19 km/h 91 m -5.1 m/s Bergen (DE) 405.70 MHz Brüel (DE) 0.00 km UNKNOWN
S1030633 RS41 2020-12-03 19:27:04 68.4543 29.0556 44 ° 70 km/h 4323 m -14.9 m/s Sodankyla (FI) 404.00 MHz 0.00 km UNKNOWN
R3330525 RS41 2020-12-03 19:05:29 50.4531 9.1264 322 ° 33 km/h 462 m -11.5 m/s Idar-Oberstein (DE) 402.70 MHz Schotten (DE) 0.00 km UNKNOWN
S1031096 RS41 2020-12-03 18:56:00 61.2867 23.9098 328 ° 35 km/h 502 m -15.0 m/s Jokioinen (FI) 403.000 MHz Valkeakoski (FI) 0.00 km UNKNOWN
ME0122755 M10 2020-12-03 18:46:54 45.3659 20.8561 21 ° 41 km/h 2009 m -11.6 m/s Belgrade (RS) 402.800 MHz Sečanj (RS) 0.00 km UNKNOWN
R3420606 RS41 2020-12-03 18:34:20 47.9886 11.533 287 ° 26 km/h 733 m -5.4 m/s Altenstadt (DE) 402.50 MHz Wolfratshausen (DE) 0.00 km FOUND
LMS6BBA08 LMS6 2020-12-03 16:12:00 34.4497 -117.912 262 ° 50 km/h 21961 m -11.8 m/s 400.265 MHz 0.00 km UNKNOWN
S2340139 RS41 2020-12-03 15:17:56 51.5041 -1.15152 68 ° 81 km/h 14083 m -6.2 m/s Larkhill (GB) 404.40 MHz Oxford (GB) 0.00 km UNKNOWN
P2531058 RS41 2020-12-03 15:11:08 54.1274 10.8246 347 ° 39 km/h 195 m -9.2 m/s Sasel (DE) 402.70 MHz Neustadt in Holstein (DE) 0.00 km UNKNOWN
R3751703 RS41 2020-12-03 14:39:39 53.2411 7.40832 338 ° 41 km/h 177 m -3.3 m/s De Bilt (NL) 403.90 MHz Leer (DE) 0.00 km FOUND
S2520153 RS41 2020-12-03 14:36:00 -12.2799 130.424 243 ° 19 km/h 320 m -6.8 m/s Darwin (AU) 402.500 MHz Darwin (AU) 0.00 km UNKNOWN
ME96231E6 M10 2020-12-03 14:27:06 41.6379 10.5931 84 ° 11 km/h 1852 m -5.6 m/s Ajaccio (FR) MHz 0.00 km UNKNOWN
R2430455 RS41 2020-12-03 14:08:31 38.3796 14.1722 112 ° 26 km/h 409 m -3.3 m/s Trapani-Birgi (IT) 402.70 MHz Bagheria (IT) 0.00 km LOST
LMS6C896D LMS6 2020-12-03 14:08:30 37.195 -77.465 92 ° 76 km/h 5162 m -4.1 m/s Blacksburg [VA] (USA) 404.015 MHz 0.00 km UNKNOWN
S2720383 RS41 2020-12-03 14:08:30 51.896 2.43821 15 ° 65 km/h 1029 m -2.9 m/s Herstmonceux (GB) 404.80 MHz Blankenberge (BE) 0.00 km UNKNOWN
ME93230CD M10 2020-12-03 14:02:30 44.6791 1.74286 73 ° 94 km/h 5462 m -3.3 m/s Bordeaux (FR) 402.001 MHz Brive-la-Gaillarde (FR) 0.00 km UNKNOWN
S1440570 RS41-SG 2020-12-03 14:00:34 50.54 -2.70045 49 ° 74 km/h 5984 m -8.0 m/s Camborne (GB) 405.70 MHz Exeter (GB) 0.00 km UNKNOWN
ME01228EB M10 2020-12-03 14:00:30 49.4789 4.54567 36 ° 48 km/h 1227 m -4.3 m/s Trappes (FR) 401.000 MHz Charleville-Mézières (FR) 0.00 km UNKNOWN
S2351631 RS41-SGP 2020-12-03 14:00:30 -15.7963 -48.0788 133 ° 24 km/h 1309 m -1.0 m/s Brasilia (BR) 403.001 MHz 0.00 km UNKNOWN
S2270775 RS41 2020-12-03 13:55:17 49.2248 10.6833 350 ° 20 km/h 650 m -1.9 m/s Stuttgart (DE) 404.50 MHz Merkendorf (DE) 0.00 km UNKNOWN
S1050309 RS41-SG 2020-12-03 13:52:31 -34.907 140.352 69 ° 30 km/h 615 m -6.3 m/s Adelaide (AU) 401.501 MHz 0.00 km UNKNOWN
S0450238 RS41 2020-12-03 13:49:38 55.5547 15.0434 17 ° 94 km/h 5103 m -2.3 m/s Greifswald (DE) 402.30 MHz Simrishamn (SE) 0.00 km UNKNOWN
D502390 DFM09 2020-12-03 13:49:10 48.6802 9.33895 358 ° 13 km/h 495 m -13.0 m/s Calw (DE) 402.052 MHz Wendlingen am Neckar (DE) 0.00 km FOUND
S0630425 RS41 2020-12-03 13:48:39 54.8013 9.02665 1 ° 41 km/h 716 m -3.6 m/s Norderney (DE) 404.10 MHz Niebüll (DE) 0.00 km FOUND
P5050363 RS41 2020-12-03 13:47:44 41.5867 19.2966 11 ° 85 km/h 7747 m -3.1 m/s Brindisi (IT) 402.70 MHz 0.00 km UNKNOWN
R5030325 RS41 2020-12-03 13:45:09 49.8156 21.9845 16 ° 48 km/h 1810 m -8.9 m/s Poprad (SK) 400.60 MHz Błażowa (PL) 0.00 km UNKNOWN
R3520860 RS41 2020-12-03 13:44:29 42.5134 14.1612 130 ° 13 km/h 66 m -10.4 m/s Pratica di Mare (IT) 404.20 MHz Montesilvano (IT) 0.00 km FOUND
S2331179 RS41-SGP 2020-12-03 13:42:41 -30.2015 -52.0379 87 ° 30 km/h 398 m -6.9 m/s 403.001 MHz 0.00 km UNKNOWN
S3540684 RS41 2020-12-03 13:42:30 44.8564 27.4089 344 ° 20 km/h 864 m -15.6 m/s Bucarest (RO) 403.921 MHz Însurăței (RO) 0.00 km UNKNOWN
R4931133 RS41 2020-12-03 13:42:00 -23.4484 -50.527 126 ° 43 km/h 1501 m -4.1 m/s Londrina (BR) 402.972 MHz 0.00 km UNKNOWN
R2350381 RS41 2020-12-03 13:41:50 50.4567 13.5199 32 ° 35 km/h 777 m -4.1 m/s Kümmersbruck (DE) 404.90 MHz Jirkov (CZ) 0.00 km UNKNOWN
S2640321 RS41 2020-12-03 13:41:24 47.3379 14.2201 13 ° 59 km/h 2407 m -1.3 m/s Udine-Rivolto (IT) 404.00 MHz Knittelfeld (AT) 0.00 km UNKNOWN
R3610724 RS41 2020-12-03 13:40:21 -27.9934 -47.7091 174 ° 56 km/h 27 m -10.1 m/s Florianopolis (BR) 405.301 MHz 0.00 km UNKNOWN
ME97222AF M10 2020-12-03 13:38:20 43.6591 5.81956 144 ° 94 km/h 10587 m -4.6 m/s Nîmes (FR) 401.999 MHz Manosque (FR) 0.00 km UNKNOWN
R3660168 RS41 2020-12-03 13:33:07 46.9168 8.50965 25 ° 7 km/h 2018 m -5.2 m/s Payerne (CH) 403.50 MHz Altdorf (CH) 0.00 km UNKNOWN
ME8101603 M20 2020-12-03 13:30:48 49.1934 17.5041 352 ° 63 km/h 676 m -11.4 m/s Vienna (AT) 401.002 MHz Napajedla (CZ) 0.00 km FOUND
S1030604 RS41 2020-12-03 13:29:18 68.7011 28.6126 47 ° 76 km/h 3572 m -16.9 m/s 404.00 MHz 0.00 km UNKNOWN
R4250780 RS41-SGP 2020-12-03 13:29:00 -2.51647 -44.0639 242 ° 39 km/h 162 m -9.3 m/s São Luís (BR) 402.001 MHz 0.00 km UNKNOWN
P2030588 RS41 2020-12-03 13:25:54 50.4344 18.5374 9 ° 74 km/h 1497 m -12.8 m/s Prostějov (CZ) 402.10 MHz Toszek (PL) 0.00 km FOUND
S4020929 RS41 2020-12-03 13:23:38 46.9703 21.1175 282 ° 24 km/h 252 m -9.9 m/s Szeged (HU) 402.30 MHz Körösladány (HU) 0.00 km UNKNOWN
LMS60CD9E MK2LMS 2020-12-03 13:23:00 43.073 -76.3537 89 ° 172 km/h 9002 m -3.4 m/s MHz Syracuse (IT) 0.00 km UNKNOWN
S2260827 RS41-SGP 2020-12-03 13:21:03 53.4571 15.5732 336 ° 33 km/h 351 m -5.9 m/s Lindenberg (DE) 405.10 MHz Ińsko (PL) 0.00 km FOUND
S4240700 RS41 2020-12-03 13:19:27 48.1812 20.1942 12 ° 61 km/h 2293 m -10.6 m/s Budapest (HU) 403.20 MHz Borsodnádasd (HU) 0.00 km UNKNOWN
S3040453 RS41 2020-12-03 13:18:22 38.2939 -8.36796 82 ° 9 km/h 430 m -8.0 m/s Lisbon (PT) 403.02 MHz 0.00 km UNKNOWN
S1440082 RS41 2020-12-03 13:17:50 -34.9201 -57.149 75 ° 87 km/h 5083 m -14.0 m/s Ezeiza (AR) 403.001 MHz 0.00 km UNKNOWN
R4840535 RS41 2020-12-03 13:17:42 45.4618 10.3382 271 ° 9 km/h 246 m -11.4 m/s Milano-Linate (IT) 404.80 MHz Brescia (IT) 0.00 km UNKNOWN
S1050710 RS41 2020-12-03 13:15:42 -37.7801 146.662 165 ° 7 km/h 429 m -5.7 m/s Melbourne (AU) 401.50 MHz Sale (AU) 0.00 km UNKNOWN
S1310241 RS41 2020-12-03 13:15:11 55.5604 18.7253 321 ° 46 km/h 507 m -13.2 m/s Łeba (PL) 403.00 MHz Władysławowo (PL) 0.00 km UNKNOWN
R2411304 RS41 2020-12-03 13:13:24 53.4139 11.4154 341 ° 26 km/h 219 m -9.0 m/s Bergen (DE) 405.70 MHz Ludwigslust (DE) 0.00 km UNKNOWN
S0650502 RS41 2020-12-03 13:12:30 61.4518 23.888 324 ° 20 km/h 305 m -10.4 m/s Jokioinen (FI) 403.001 MHz Tampere (FI) 0.00 km UNKNOWN
R3951003 RS41 2020-12-03 13:12:08 44.4724 8.7347 30 ° 9 km/h 1137 m -11.8 m/s Cuneo-Levaldigi (IT) 402.80 MHz Genoa (IT) 0.00 km NEED ATTENTION
S0640790 RS41 2020-12-03 13:11:55 52.9855 22.2309 355 ° 46 km/h 871 m -16.4 m/s Legionowo (PL) 404.50 MHz Zambrów (PL) 0.00 km UNKNOWN
S3451543 RS41 2020-12-03 13:10:43 46.6054 16.7956 237 ° 11 km/h 364 m -12.1 m/s Zagreb (HR) 402.00 MHz Lenti (HU) 0.00 km UNKNOWN
ME922238F M10 2020-12-03 13:08:46 43.7501 22.6573 7 ° 39 km/h 4809 m -15.1 m/s Niš (RS) 402.400 MHz Calafat (RO) 0.00 km UNKNOWN
R3320669 RS41 2020-12-03 13:07:31 50.1482 8.99335 339 ° 30 km/h 240 m -12.3 m/s Idar-Oberstein (DE) 402.70 MHz Langenselbold (DE) 0.00 km FOUND
R4350433 RS41 2020-12-03 13:07:30 -30.4183 -49.935 121 ° 87 km/h 2329 m -9.1 m/s Porto Alegre (BR) 403.001 MHz 0.00 km UNKNOWN
LMS6C8647 LMS6 2020-12-03 13:05:00 38.686 -95.5659 271 ° 19 km/h 2488 m -9.4 m/s Topeka [KS] (USA) 400.266 MHz 0.00 km UNKNOWN
R2821136 RS41 2020-12-03 13:05:00 55.3165 10.6654 338 ° 44 km/h 449 m -12.4 m/s Schleswig (DE) 402.50 MHz Ullerslev (DK) 0.00 km UNKNOWN
R5120515 RS41 2020-12-03 13:04:05 42.9648 23.801 6 ° 19 km/h 1849 m -14.3 m/s Sofia (BG) 405.30 MHz Cherven Bryag (BG) 0.00 km UNKNOWN
S0640605 RS41 2020-12-03 13:03:32 51.9807 17.9035 355 ° 56 km/h 710 m -14.0 m/s Wrocław (PL) 403.00 MHz Chocz (PL) 0.00 km FOUND
S1350826 RS41 2020-12-03 13:02:30 44.8825 -122.64 46 ° 26 km/h 2096 m -15.8 m/s Salem [OR] (USA) 401.401 MHz 0.00 km UNKNOWN
S1810584 RS41 2020-12-03 13:00:39 50.8281 15.4894 16 ° 65 km/h 1258 m -13.5 m/s Praha (CZ) 404.20 MHz Szklarska Poręba (PL) 0.00 km UNKNOWN
S0430327 RS41 2020-12-03 12:57:38 50.9433 11.444 39 ° 20 km/h 452 m -6.2 m/s Meiningen (DE) 402.30 MHz Magdala (DE) 0.00 km FOUND
ME012277F M10 2020-12-03 12:54:16 45.3328 20.9778 14 ° 44 km/h 2530 m -11.5 m/s Belgrade (RS) 402.800 MHz Plandište (RS) 0.00 km UNKNOWN
R2411187 RS41 2020-12-03 12:54:00 53.3734 8.29556 357 ° 37 km/h 207 m -3.9 m/s Meppen (DE) 404.50 MHz Varel (DE) 0.00 km FOUND
R4010542 2020-12-03 12:54:00 -22.8419 -43.2554 44 ° 35 km/h 12887 m -13.0 m/s Galeão (BR) 405.301 MHz 0.00 km UNKNOWN
R1130812 RS41 2020-12-03 12:51:44 40.1948 -2.61479 70 ° 96 km/h 29004 m 5.7 m/s Madrid (ES) 403.00 MHz Cuenca (ES) 0.00 km UNKNOWN
S2040686 RS41 2020-12-03 12:46:20 59.7534 6.42775 10 ° 63 km/h 15174 m -26.8 m/s Stavanger (NO) 403.001 MHz 0.00 km UNKNOWN
S0430649 RS41 2020-12-03 12:45:17 45.209 12.2476 205 ° 7 km/h 103 m -15.3 m/s San Pietro Capofiume (IT) 404.60 MHz Venice (IT) 0.00 km UNKNOWN
R3250020 RS41 2020-12-03 12:44:51 44.7877 15.8746 140 ° 9 km/h 762 m -16.1 m/s Zadar (HR) 403.00 MHz Bihać (BA) 0.00 km UNKNOWN
S2520148 RS41 2020-12-03 12:44:31 -12.3454 130.552 251 ° 30 km/h 227 m -6.4 m/s Darwin (AU) 401.500 MHz Darwin (AU) 0.00 km UNKNOWN
S1330748 RS41 2020-12-03 12:42:30 32.1363 -116.949 187 ° 70 km/h 28999 m -93.7 m/s San Diego [CA] (USA) 400.651 MHz 0.00 km UNKNOWN
R1020952 RS41-SGP 2020-12-03 12:38:16 43.1495 -2.4351 72 ° 30 km/h 1440 m -5.4 m/s Santander (ES) 401.50 MHz Eibar (ES) 0.00 km UNKNOWN
R2350681 RS41 2020-12-03 12:32:10 25.4871 122.404 48 ° 122 km/h 12194 m -5.9 m/s New Taipei (TW) 400.30 MHz 0.00 km UNKNOWN
S2270088 RS41 2020-12-03 12:28:36 48.6911 12.2455 352 ° 15 km/h 600 m -8.1 m/s München (DE) 402.30 MHz Rottenburg a.d.Laaber (DE) 0.00 km UNKNOWN
S2270115 RS41 2020-12-03 12:25:21 51.8271 7.80416 10 ° 20 km/h 134 m -7.2 m/s Essen (DE) 405.30 MHz Sendenhorst (DE) 0.00 km FOUND
R0231484 RS41 2020-12-03 12:24:38 39.1638 9.67456 71 ° 76 km/h 27651 m 6.7 m/s Decimomannu (IT) 402.80 MHz Quartu Sant Elena (IT) 0.00 km UNKNOWN
D20038072 DFM17 2020-12-03 12:16:58 54.1526 10.3547 337 ° 24 km/h 268 m -11.5 m/s Pinneberg (DE) 402.011 MHz Plön (DE) 0.00 km FOUND
R3340806 RS41 2020-12-03 12:12:53 47.9885 11.2943 356 ° 7 km/h 801 m -7.6 m/s Altenstadt (DE) 402.50 MHz Starnberg (DE) 0.00 km UNKNOWN
S3050727 RS41 2020-12-03 12:09:30 38.1269 24.1753 12 ° 31 km/h 3687 m -15.9 m/s Athens (GR) 402.000 MHz 0.00 km UNKNOWN
S3951307 RS41 2020-12-03 11:49:30 61.068 25.5189 321 ° 20 km/h 396 m -7.0 m/s Vaisala Oyj (FI) 400.800 MHz Lahti (FI) 0.00 km UNKNOWN
S3951309 RS41-SGP 2020-12-03 11:40:30 61.0139 25.5276 12 ° 44 km/h 4601 m -8.8 m/s Vaisala Oyj (FI) 400.600 MHz Lahti (FI) 0.00 km UNKNOWN
S2331385 RS41 2020-12-03 11:22:30 51.5338 -0.94498 42 ° 150 km/h 9227 m -6.6 m/s Larkhill (GB) 404.40 MHz Oxford (GB) 0.00 km UNKNOWN
R4420610 RS41-SG 2020-12-03 11:18:42 -36.4822 175.493 68 ° 30 km/h 3069 m -20.0 m/s Whenuapai (NZ) 403.001 MHz 0.00 km UNKNOWN
D502380 DFM 2020-12-03 10:25:30 48.5815 9.09073 12 ° 11 km/h 608 m -11.9 m/s Calw (DE) 402.011 MHz Tübingen (DE) 0.00 km UNKNOWN
D18049015 DFM09 2020-12-03 10:25:00 44.8047 0.425321 81 ° 52 km/h 2457 m -4.8 m/s Bordeaux (FR) 405.009 MHz Bergerac (FR) 0.00 km UNKNOWN
R2411185 RS41 2020-12-03 09:19:00 53.1271 7.96702 352 ° 19 km/h 102 m -4.5 m/s Meppen (DE) 405.10 MHz Friesoythe (DE) 0.00 km FOUND
S2270673 RS41-SGP 2020-12-03 09:11:30 49.2027 12.5072 36 ° 11 km/h 667 m -2.4 m/s München (DE) 402.30 MHz Roding (DE) 0.00 km FOUND
ME7922680 M10 2020-12-03 08:39:14 54.6898 17.2336 1 ° 26 km/h 30562 m 0.0 m/s Świdwin (PL) 403.999 MHz Łeba (PL) 0.00 km UNKNOWN
S2330352 RS41 2020-12-03 07:50:55 48.7549 10.2072 47 ° 19 km/h 819 m -2.1 m/s Stuttgart (DE) 404.50 MHz Heidenheim an der Brenz (DE) 0.00 km UNKNOWN
R5130049 RS41 2020-12-03 07:36:15 42.9373 23.9556 33 ° 13 km/h 2511 m -8.9 m/s Sofia (BG) 405.30 MHz Cherven Bryag (BG) 0.00 km UNKNOWN
S2331370 RS41 2020-12-03 07:26:44 51.383 -0.817679 81 ° 106 km/h 10775 m -4.0 m/s Larkhill (GB) 404.40 MHz Westminster (GB) 0.00 km UNKNOWN
S1810560 RS41 2020-12-03 07:23:56 50.6909 15.4759 317 ° 31 km/h 842 m -14.5 m/s Praha (CZ) 401.10 MHz Jablonec nad Jizerou (CZ) 0.00 km UNKNOWN
S2260960 RS41 2020-12-03 07:23:12 51.7013 8.37542 26 ° 41 km/h 121 m -0.1 m/s Essen (DE) 405.30 MHz Lippstadt (DE) 0.00 km FOUND
R2350378 RS41 2020-12-03 07:16:19 50.2349 13.0627 44 ° 24 km/h 1038 m -11.9 m/s Kümmersbruck (DE) 402.70 MHz Bochov (CZ) 0.00 km UNKNOWN
R2411303 RS41 2020-12-03 07:10:28 53.1264 10.3695 357 ° 39 km/h 347 m -2.3 m/s Bergen (DE) 405.70 MHz Lüneburg (DE) 0.00 km UNKNOWN
R3320672 RS41 2020-12-03 07:10:05 49.7419 8.65719 6 ° 31 km/h 439 m -6.6 m/s Idar-Oberstein (DE) 402.70 MHz Zwingenberg (DE) 0.00 km UNKNOWN
ME02222F4 M10 2020-12-03 07:09:41 47.4545 15.0629 282 ° 9 km/h 1396 m -3.0 m/s Ljubljana (SI) 403.000 MHz Trofaiach (AT) 0.00 km UNKNOWN
S1030854 RS41 2020-12-03 07:02:30 61.4592 23.5272 352 ° 35 km/h 515 m -13.9 m/s Jokioinen (FI) 403.000 MHz Nokia (FI) 0.00 km UNKNOWN
S2251394 RS41 2020-12-03 06:52:57 52.9548 15.012 323 ° 28 km/h 245 m -4.3 m/s Lindenberg (DE) 405.10 MHz Lipiany (PL) 0.00 km FOUND
R2411182 RS41 2020-12-03 06:46:01 53.0607 8.11552 341 ° 22 km/h 75 m -5.0 m/s Meppen (DE) 404.50 MHz Oldenburg (DE) 0.00 km FOUND
R2340160 RS41 2020-12-03 06:33:53 48.1459 11.3033 98 ° 28 km/h 903 m -6.9 m/s Altenstadt (DE) 402.50 MHz Puchheim (DE) 0.00 km UNKNOWN
ME0122780 M10 2020-12-03 05:49:38 44.9874 20.5607 45 ° 63 km/h 10777 m 4.2 m/s Belgrade (RS) 402.800 MHz Opovo (RS) 0.00 km UNKNOWN
S2410943 RS41 2020-12-03 05:21:57 47.9822 15.9773 318 ° 13 km/h 650 m -3.7 m/s Graz (AT) 404.70 MHz Bad Vöslau (AT) 0.00 km FOUND
S1311415 RS41 2020-12-03 05:15:38 49.3285 17.214 344 ° 31 km/h 691 m -3.4 m/s Vienna (AT) 403.50 MHz Němčice nad Hanou (CZ) 0.00 km UNKNOWN
R2520717 RS41 2020-12-03 04:47:12 47.7147 11.5782 91 ° 24 km/h 1125 m -8.0 m/s Innsbruck (AT) 404.10 MHz Bad Tölz (DE) 0.00 km FOUND
S2420118 RS41 2020-12-03 03:51:02 48.9376 14.4896 357 ° 13 km/h 913 m -4.1 m/s Linz (AT) 403.40 MHz Heřmaň (CZ) 0.00 km FOUND
R3951521 RS41 2020-12-03 02:29:53 44.1672 8.5226 175 ° 35 km/h 112 m -3.4 m/s Cuneo-Levaldigi (IT) 402.80 MHz Savona (IT) 0.00 km UNKNOWN
ME0122901 M10 2020-12-03 02:12:00 48.5472 3.68363 64 ° 35 km/h 489 m -3.5 m/s Trappes (FR) 400.999 MHz Troyes (FR) 0.00 km UNKNOWN
ME8101518 M20 2020-12-03 02:03:21 48.9664 17.611 336 ° 39 km/h 728 m -8.3 m/s Vienna (AT) 401.003 MHz Hluk (CZ) 0.00 km UNKNOWN
S3030311 RS41-SGP 2020-12-03 01:59:30 38.5277 -8.80717 220 ° 35 km/h 209 m -3.3 m/s Lisbon (PT) 403.020 MHz Artemove (UA) 0.00 km UNKNOWN
S2640176 RS41 2020-12-03 01:59:00 46.8414 13.6774 281 ° 19 km/h 2076 m -4.7 m/s Udine-Rivolto (IT) 404.00 MHz Spittal an der Drau (AT) 0.00 km UNKNOWN
S2830050 RS41 2020-12-03 01:58:00 50.9831 2.18 17 ° 20 km/h 59 m -4.4 m/s Herstmonceux (GB) 404.80 MHz Grande-Synthe (FR) 0.00 km UNKNOWN
R2821151 RS41 2020-12-03 01:51:00 55.0184 10.5292 4 ° 35 km/h 717 m -3.7 m/s Schleswig (DE) 402.50 MHz Svendborg (DK) 0.00 km UNKNOWN
P2030586 RS41 2020-12-03 01:50:33 50.0807 18.4275 5 ° 19 km/h 648 m -8.6 m/s Prostějov (CZ) 402.10 MHz Rydułtowy (PL) 0.00 km UNKNOWN
S1310245 RS41 2020-12-03 01:47:57 55.3506 18.3348 357 ° 44 km/h 301 m -12.6 m/s Łeba (PL) 403.00 MHz Władysławowo (PL) 0.00 km UNKNOWN
LMS60BFB9 MK2LMS 2020-12-03 01:45:30 42.6221 -76.417 141 ° 83 km/h 2947 m -2.4 m/s MHz Syracuse (IT) 0.00 km UNKNOWN
LMS6C72DD LMS6 2020-12-03 01:44:00 41.4017 -89.3772 99 ° 24 km/h 1658 m -3.0 m/s Davenport [IA] (USA) 401.011 MHz 0.00 km FOUND
R2430456 RS41 2020-12-03 01:38:29 38.4832 13.9785 119 ° 19 km/h 67 m -3.9 m/s Trapani-Birgi (IT) 402.70 MHz Bagheria (IT) 0.00 km LOST
R3250499 RS41 2020-12-03 01:36:07 45.0497 16.0981 252 ° 7 km/h 667 m -14.9 m/s Zadar (HR) 403.00 MHz Cazin (BA) 0.00 km UNKNOWN
R4120277 RS41 2020-12-03 01:36:05 52.2015 6.0581 23 ° 28 km/h 168 m -10.3 m/s De Bilt (NL) 403.90 MHz Apeldoorn (NL) 0.00 km UNKNOWN
LMS6C8716 LMS6 2020-12-03 01:36:00 37.1557 -78.4147 103 ° 78 km/h 5563 m -3.2 m/s Blacksburg [VA] (USA) 404.010 MHz 0.00 km UNKNOWN
R5020850 RS41-SGP 2020-12-03 01:32:48 49.3397 21.8866 44 ° 22 km/h 2282 m -13.9 m/s Poprad (SK) 400.60 MHz Medzilaborce (SK) 0.00 km UNKNOWN
S1810585 RS41 2020-12-03 01:32:32 50.6515 15.5676 68 ° 19 km/h 884 m -7.1 m/s Praha (CZ) 404.20 MHz Vrchlabí (CZ) 0.00 km UNKNOWN
R3320671 RS41 2020-12-03 01:32:11 49.3996 8.20474 60 ° 13 km/h 372 m -5.2 m/s Idar-Oberstein (DE) 402.70 MHz Deidesheim (DE) 0.00 km FOUND
R2411301 RS41 2020-12-03 01:31:07 53.161 10.9313 358 ° 22 km/h 305 m -4.9 m/s Bergen (DE) 405.70 MHz Hitzacker (DE) 0.00 km UNKNOWN
S1030497 RS41-SG 2020-12-03 01:28:58 67.9367 29.4684 52 ° 94 km/h 5757 m -17.7 m/s Sodankyla (FI) 404.00 MHz 0.00 km UNKNOWN
S1510400 RS41 2020-12-03 01:26:30 51.3146 7.81142 355 ° 20 km/h 516 m -3.1 m/s Essen (DE) 405.30 MHz Neuenrade (DE) 0.00 km FOUND
S2440342 RS41-SG 2020-12-03 01:23:46 -12.3187 130.104 305 ° 28 km/h 8042 m -8.2 m/s Darwin (AU) 401.50 MHz Darwin (AU) 0.00 km UNKNOWN
ME0522AC6 M10 2020-12-03 01:23:30 44.2603 0.34533 159 ° 67 km/h 6275 m -6.4 m/s Bordeaux (FR) 402.000 MHz Agen (FR) 0.00 km UNKNOWN
R2350549 RS41 2020-12-03 01:23:23 50.1708 12.9798 26 ° 17 km/h 1008 m -9.2 m/s Kümmersbruck (DE) 402.70 MHz Bochov (CZ) 0.00 km UNKNOWN
S2260295 RS41 2020-12-03 01:22:37 52.7975 15.4547 305 ° 31 km/h 227 m -9.0 m/s Lindenberg (DE) 405.10 MHz Strzelce Krajeńskie (PL) 0.00 km UNKNOWN
P5050361 RS41 2020-12-03 01:21:30 41.1161 18.9282 14 ° 59 km/h 2076 m -6.1 m/s Brindisi (IT) 402.70 MHz Brindisi (IT) 0.00 km UNKNOWN
S0430324 RS41 2020-12-03 01:21:24 50.8509 11.2131 42 ° 17 km/h 617 m -7.8 m/s Meiningen (DE) 402.30 MHz Kranichfeld (DE) 0.00 km FOUND
R4840537 RS41 2020-12-03 01:20:28 45.6628 10.1478 193 ° 6 km/h 856 m -9.7 m/s Milano-Linate (IT) 404.80 MHz Brescia (IT) 0.00 km UNKNOWN
S1040515 RS41-SG 2020-12-03 01:19:30 -35.2583 140.03 124 ° 22 km/h 1089 m -4.4 m/s Adelaide (AU) 401.501 MHz Murray Bridge (AU) 0.00 km UNKNOWN
S1920520 RS41 2020-12-03 01:18:30 54.573 -4.31771 78 ° 72 km/h 11801 m -7.3 m/s 404.20 MHz Donaghadee (IE) 0.00 km UNKNOWN
R0231774 RS41-SG 2020-12-03 01:16:58 39.6654 10.3742 19 ° 111 km/h 7647 m -3.3 m/s Cagliari (IT) 402.80 MHz 0.00 km UNKNOWN
S0541324 RS41 2020-12-03 01:16:48 53.9298 8.18797 18 ° 41 km/h 284 m -4.4 m/s Norderney (DE) 404.10 MHz Cuxhaven (DE) 0.00 km LOST
S1350810 RS41 2020-12-03 01:16:00 44.5417 -122.597 7 ° 37 km/h 5260 m -13.5 m/s Salem [OR] (USA) 401.401 MHz 0.00 km UNKNOWN
S2040677 RS41 2020-12-03 01:15:00 59.8915 6.16518 358 ° 39 km/h 15309 m -37.4 m/s 403.000 MHz 0.00 km UNKNOWN
S3540702 RS41 2020-12-03 01:14:30 44.6723 27.026 302 ° 6 km/h 345 m -8.8 m/s Bucarest (RO) 403.920 MHz Căzănești (RO) 0.00 km UNKNOWN
R3520841 RS41 2020-12-03 01:14:12 42.285 13.4862 47 ° 54 km/h 3192 m -10.3 m/s Pratica di Mare (IT) 404.20 MHz L Aquila (IT) 0.00 km UNKNOWN
R3730838 RS41 2020-12-03 01:14:07 -38.0151 146.677 20 ° 9 km/h 207 m -3.1 m/s Melbourne (AU) 401.50 MHz Traralgon (AU) 0.00 km UNKNOWN
LMS6C8275 LMS6 2020-12-03 01:14:00 39.1042 -95.2458 351 ° 81 km/h 8549 m -4.8 m/s Topeka [KS] (USA) 400.260 MHz 0.00 km UNKNOWN
R3660840 RS41 2020-12-03 01:13:12 46.5953 7.7732 193 ° 33 km/h 4101 m -9.5 m/s Payerne (CH) 403.50 MHz Unterseen (CH) 0.00 km UNKNOWN
S2720486 RS41-SG 2020-12-03 01:13:00 59.9217 24.331 5 ° 35 km/h 1257 m -11.7 m/s Tallinn (EE) 404.00 MHz Siuntio (FI) 0.00 km UNKNOWN
ME9222383 M10 2020-12-03 01:11:54 43.6013 22.6248 74 ° 28 km/h 4670 m -16.3 m/s Niš (RS) 402.403 MHz Knjaževac (RS) 0.00 km UNKNOWN
S0450246 RS41 2020-12-03 01:11:47 54.6367 13.9341 351 ° 31 km/h 960 m -2.4 m/s Greifswald (DE) 402.30 MHz Sassnitz (DE) 0.00 km UNKNOWN
S0640793 RS41 2020-12-03 01:11:37 52.6872 21.7763 330 ° 41 km/h 641 m -11.4 m/s Legionowo (PL) 404.50 MHz Brok (PL) 0.00 km UNKNOWN
R1020950 RS41 2020-12-03 01:10:48 42.8441 -2.65856 150 ° 61 km/h 6185 m -4.4 m/s Santander (ES) 401.501 MHz Vitoria-Gasteiz (ES) 0.00 km UNKNOWN
ME0122768 M10 2020-12-03 01:09:53 45.1566 21.1617 22 ° 30 km/h 2743 m -8.4 m/s Belgrade (RS) 402.800 MHz Plandište (RS) 0.00 km UNKNOWN
R1150748 RS41 2020-12-03 01:09:16 40.1387 -2.71841 119 ° 59 km/h 15181 m -7.0 m/s Madrid (ES) 403.00 MHz Cuenca (ES) 0.00 km UNKNOWN
S4240694 RS41-SGP 2020-12-03 01:09:12 47.7913 20.0304 317 ° 24 km/h 782 m -14.6 m/s Budapest (HU) 403.20 MHz Gyöngyös (HU) 0.00 km FOUND
ME97222C7 M10 2020-12-03 01:08:00 43.308 4.97284 102 ° 41 km/h 17963 m -8.5 m/s Nîmes (FR) 402.401 MHz Martigues (FR) 0.00 km UNKNOWN
S2270769 RS41 2020-12-03 01:08:00 48.8437 10.0268 109 ° 22 km/h 967 m -6.9 m/s Stuttgart (DE) 404.50 MHz Aalen (DE) 0.00 km FOUND
S0640607 RS41 2020-12-03 01:06:51 51.556 17.779 300 ° 15 km/h 179 m -10.0 m/s Wrocław (PL) 403.00 MHz Odolanów (PL) 0.00 km FOUND
S1330693 RS41 2020-12-03 01:06:30 32.2828 -116.896 214 ° 39 km/h 25623 m -39.4 m/s San Diego [CA] (USA) 400.651 MHz 0.00 km UNKNOWN
S3950998 RS41 2020-12-03 01:04:00 46.613 20.8555 256 ° 11 km/h 175 m -13.5 m/s Szeged (HU) 402.30 MHz Csorvás (HU) 0.00 km FOUND
S1030851 RS41 2020-12-03 01:00:00 61.3593 23.0793 14 ° 63 km/h 975 m -14.6 m/s Jokioinen (FI) 403.000 MHz Sastamala (FI) 0.00 km UNKNOWN
S1440185 RS41 2020-12-03 01:00:00 53.2803 0.218789 80 ° 44 km/h 1163 m -5.4 m/s Watnall (GB) 404.201 MHz Lincoln (GB) 0.00 km FOUND
R4010551 2020-12-03 00:58:30 -22.724 -43.0115 69 ° 74 km/h 12713 m -7.8 m/s Galeão (BR) 405.301 MHz 0.00 km UNKNOWN
R2411084 RS41 2020-12-03 00:53:56 25.3806 122.297 58 ° 130 km/h 12980 m -5.8 m/s New Taipei (TW) 400.30 MHz 0.00 km UNKNOWN
R3250612 RS41 2020-12-03 00:52:00 46.3986 16.5759 239 ° 15 km/h 229 m -14.6 m/s Zagreb (HR) 402.00 MHz Prelog (HR) 0.00 km UNKNOWN
S0441232 RS41 2020-12-03 00:43:54 45.1475 11.9892 174 ° 19 km/h 107 m -14.3 m/s San Pietro Capofiume (IT) 404.60 MHz Rovigo (IT) 0.00 km UNKNOWN
S2270087 RS41 2020-12-03 00:43:26 48.8532 12.1555 123 ° 4 km/h 931 m -4.2 m/s München (DE) 402.30 MHz Neutraubling (DE) 0.00 km FOUND
S2020483 RS41 2020-12-03 00:23:30 57.1313 3.85192 33 ° 35 km/h 17688 m -21.1 m/s Ekofisk (NO) 403.00 MHz 0.00 km UNKNOWN
S3120323 RS41-SGP 2020-12-03 00:15:00 40.695 23.2766 329 ° 9 km/h 22226 m 8.5 m/s Thessaloniki (GR) 403.00 MHz Bansko (BG) 0.00 km UNKNOWN
R4420675 RS41 2020-12-02 23:50:35 -36.7881 175.65 75 ° 74 km/h 1978 m -13.3 m/s Whenuapai (NZ) 403.001 MHz 0.00 km UNKNOWN
IMET86140 iMET 2020-12-02 23:04:16 50.4542 5.25628 70 ° 13 km/h 13763 m -7.6 m/s Beauvechain (BE) 402.999 MHz Huy (BE) 0.00 km UNKNOWN
L2443820 RS92 2020-12-02 20:04:30 -22.8176 -44.8604 358 ° 19 km/h 5323 m -5.2 m/s 403.001 MHz 0.00 km UNKNOWN
R3330793 RS41 2020-12-02 19:31:30 49.4168 8.12304 46 ° 6 km/h 551 m -8.3 m/s Idar-Oberstein (DE) 402.70 MHz Deidesheim (DE) 0.00 km FOUND
R2411299 RS41 2020-12-02 19:30:40 53.0604 10.7531 343 ° 28 km/h 304 m -6.0 m/s Bergen (DE) 405.70 MHz Bad Bevensen (DE) 0.00 km UNKNOWN
S0921087 RS41-SG 2020-12-02 19:25:40 67.5799 29.9018 84 ° 104 km/h 9124 m -22.2 m/s 404.00 MHz 0.00 km UNKNOWN
R2350380 RS41 2020-12-02 19:21:02 49.7636 12.3899 306 ° 26 km/h 919 m -8.9 m/s Kümmersbruck (DE) 402.70 MHz Bärnau (DE) 0.00 km NEED ATTENTION
S2251397 RS41 2020-12-02 19:05:23 52.5027 14.2601 314 ° 35 km/h 244 m -9.9 m/s Lindenberg (DE) 405.10 MHz Seelow (DE) 0.00 km UNKNOWN
S1030866 RS41 2020-12-02 19:01:30 61.0678 23.114 15 ° 52 km/h 788 m -13.5 m/s Jokioinen (FI) 403.000 MHz Loimaa (FI) 0.00 km UNKNOWN
ME012276A M10 2020-12-02 18:51:41 44.9995 20.9955 27 ° 26 km/h 1954 m -12.6 m/s Belgrade (RS) 402.800 MHz Alibunar (RS) 0.00 km UNKNOWN
R2330606 RS41 2020-12-02 18:18:48 47.9351 10.8595 109 ° 2 km/h 1003 m -5.1 m/s Altenstadt (DE) 402.50 MHz Landsberg am Lech (DE) 0.00 km UNKNOWN
R3660355 RS41 2020-12-02 15:21:00 46.5889 7.40138 216 ° 46 km/h 5307 m -4.4 m/s Payerne (CH) 401.50 MHz Spiez (CH) 0.00 km UNKNOWN
P4930056 RS41 2020-12-02 14:53:06 54.5287 -2.10924 53 ° 106 km/h 11841 m -9.0 m/s Eskmeals (GB) 401.60 MHz Durham (GB) 0.00 km UNKNOWN
R3630019 RS41 2020-12-02 14:50:40 -27.6556 -46.9247 213 ° 9 km/h 447 m -2.1 m/s Florianopolis (BR) 405.302 MHz 0.00 km UNKNOWN
ME96231FC M10 2020-12-02 14:43:04 42.7974 10.3492 14 ° 44 km/h 2624 m -2.5 m/s Ajaccio (FR) MHz Grosseto (IT) 0.00 km UNKNOWN
N5040527 RS41 2020-12-02 14:39:30 62.0411 22.6099 21 ° 33 km/h 2525 m -12.2 m/s Niinisalo (FI) 403.000 MHz Parkano (FI) 0.00 km UNKNOWN
R4830312 RS41-SGP 2020-12-02 14:28:05 -20.1437 -40.4984 183 ° 4 km/h 844 m -6.7 m/s 405.30 MHz 0.00 km UNKNOWN
S0541226 RS41 2020-12-02 14:14:48 53.3503 7.08618 328 ° 19 km/h 75 m -2.4 m/s Norderney (DE) 404.10 MHz Emden (DE) 0.00 km FOUND
ME97227FD M10 2020-12-02 14:10:30 47.7099 2.33013 168 ° 39 km/h 2861 m -2.7 m/s Trappes (FR) 400.999 MHz Orléans (FR) 0.00 km UNKNOWN
R5051054 RS41-SGP 2020-12-02 14:08:34 49.2377 21.8021 279 ° 2 km/h 2393 m -8.5 m/s Poprad (SK) 400.60 MHz Medzilaborce (SK) 0.00 km UNKNOWN
S2330338 RS41 2020-12-02 14:04:30 48.714 8.86214 221 ° 13 km/h 602 m -2.2 m/s Stuttgart (DE) 404.50 MHz Weil der Stadt (DE) 0.00 km NEED ATTENTION
S2270095 RS41 2020-12-02 13:56:03 48.6364 11.4428 254 ° 22 km/h 625 m -2.1 m/s München (DE) 402.30 MHz Pfaffenhofen an der Ilm (DE) 0.00 km UNKNOWN
R3960274 RS41 2020-12-02 13:52:00 44.2837 7.88465 107 ° 7 km/h 1063 m -4.3 m/s Cuneo-Levaldigi (IT) 402.80 MHz Cuneo (IT) 0.00 km UNKNOWN
R3520863 RS41 2020-12-02 13:51:47 42.3394 13.9494 325 ° 11 km/h 394 m -3.7 m/s Pratica di Mare (IT) 404.20 MHz Chieti (IT) 0.00 km UNKNOWN
R3341090 RS41 2020-12-02 13:50:09 50.3455 4.67575 102 ° 11 km/h 693 m -7.1 m/s Uccle (BE) 403.50 MHz Fosses-la-Ville (BE) 0.00 km FOUND
S2440616 RS41-SGP 2020-12-02 13:46:01 -29.7079 -52.6735 127 ° 22 km/h 1716 m -8.5 m/s 403.001 MHz 0.00 km UNKNOWN
R2411297 RS41 2020-12-02 13:45:00 52.9704 10.423 10 ° 9 km/h 114 m -5.2 m/s Bergen (DE) 405.70 MHz Uelzen (DE) 0.00 km UNKNOWN
P5050379 RS41 2020-12-02 13:42:22 41.0583 19.1162 21 ° 28 km/h 5041 m -4.1 m/s Brindisi (IT) 402.70 MHz 0.00 km UNKNOWN
R0240691 RS41 2020-12-02 13:40:18 39.6935 10.6174 45 ° 83 km/h 5633 m -3.3 m/s Cagliari (IT) 402.80 MHz 0.00 km UNKNOWN
R2340825 RS41 2020-12-02 13:40:15 49.7146 12.2056 259 ° 11 km/h 617 m -8.4 m/s Kümmersbruck (DE) 402.70 MHz Neustadt an der Waldnaab (DE) 0.00 km FOUND
P4930007 RS41 2020-12-02 13:38:14 46.7578 13.7522 335 ° 46 km/h 2295 m -3.7 m/s Udine-Rivolto (IT) 404.00 MHz Villach (AT) 0.00 km UNKNOWN
R3710967 RS41 2020-12-02 13:34:44 46.5916 7.09928 318 ° 7 km/h 1915 m -6.0 m/s Payerne (CH) 403.50 MHz La Tour-de-Trême (CH) 0.00 km UNKNOWN
LMS6C8650 LMS6 2020-12-02 13:34:00 39.3071 -95.0469 245 ° 17 km/h 1074 m -4.5 m/s Topeka [KS] (USA) 400.264 MHz 0.00 km UNKNOWN
LMS6C8858 LMS6 2020-12-02 13:33:00 36.7917 -78.3603 126 ° 159 km/h 7600 m -4.7 m/s Blacksburg [VA] (USA) 404.012 MHz 0.00 km UNKNOWN
R2420368 RS41 2020-12-02 13:31:00 38.2362 13.8217 360 ° 50 km/h 155 m -7.2 m/s Trapani-Birgi (IT) 402.70 MHz Bagheria (IT) 0.00 km LOST
S3040451 RS41-SGP 2020-12-02 13:30:15 38.6956 -8.94445 166 ° 7 km/h 137 m -4.0 m/s Lisbon (PT) 403.02 MHz Artemove (UA) 0.00 km UNKNOWN
S1030476 RS41 2020-12-02 13:29:06 67.2862 30.2517 103 ° 109 km/h 10926 m -28.8 m/s 404.00 MHz 0.00 km UNKNOWN
R4320192 RS41-SGP 2020-12-02 13:29:01 -2.56092 -44.0686 250 ° 35 km/h 219 m -11.1 m/s São Luís (BR) 401.000 MHz 0.00 km UNKNOWN
S2410141 RS41-SGP 2020-12-02 13:29:00 -15.7618 -48.1955 177 ° 7 km/h 1451 m -12.0 m/s Brasilia (BR) 403.001 MHz 0.00 km UNKNOWN
ME8101581 M20 2020-12-02 13:28:23 48.6442 16.8108 66 ° 2 km/h 347 m -5.4 m/s Vienna (AT) 401.003 MHz Valtice (CZ) 0.00 km FOUND
P1920049 RS41 2020-12-02 13:25:55 49.7629 17.8236 355 ° 35 km/h 1653 m -13.2 m/s Prostějov (CZ) 402.10 MHz Vítkov (CZ) 0.00 km FOUND
R2821135 RS41 2020-12-02 13:24:28 54.4146 9.12198 334 ° 15 km/h 351 m -3.9 m/s Schleswig (DE) 402.50 MHz Friedrichstadt (DE) 0.00 km FOUND
R1040613 RS41 2020-12-02 13:24:08 42.1829 -3.51938 194 ° 109 km/h 5296 m -2.4 m/s Santander (ES) 401.50 MHz Burgos (ES) 0.00 km UNKNOWN
S1650523 RS41 2020-12-02 13:23:40 50.0795 -3.91501 155 ° 22 km/h 16283 m -11.7 m/s Camborne (GB) 405.70 MHz Plymouth (GB) 0.00 km UNKNOWN
S0640722 RS41 2020-12-02 13:22:07 51.3535 17.3715 345 ° 31 km/h 653 m -10.7 m/s Wrocław (PL) 403.00 MHz Twardogóra (PL) 0.00 km UNKNOWN
S1310370 RS41 2020-12-02 13:21:55 54.9132 17.5955 328 ° 28 km/h 1341 m -11.7 m/s Łeba (PL) 403.00 MHz Łeba (PL) 0.00 km UNKNOWN
S0610987 RS41 2020-12-02 13:21:34 52.5361 21.5924 324 ° 22 km/h 466 m -14.9 m/s Legionowo (PL) 404.50 MHz Łochów (PL) 0.00 km FOUND
S1750064 RS41 2020-12-02 13:21:19 50.3099 14.9029 288 ° 20 km/h 323 m -8.8 m/s Praha (CZ) 401.10 MHz Benátky nad Jizerou (CZ) 0.00 km UNKNOWN
LMS6C79A3 LMS6 2020-12-02 13:20:30 41.2796 -89.3822 120 ° 39 km/h 11533 m -4.9 m/s Davenport [IA] (USA) 405.887 MHz 0.00 km UNKNOWN
S3540678 RS41 2020-12-02 13:20:30 44.7468 27.1174 194 ° 22 km/h 477 m -14.6 m/s Bucarest (RO) 403.920 MHz Căzănești (RO) 0.00 km UNKNOWN
S1040512 RS41 2020-12-02 13:19:30 -35.4786 140.245 149 ° 24 km/h 1302 m -6.6 m/s Adelaide (AU) 401.501 MHz Murray Bridge (AU) 0.00 km UNKNOWN
S4120319 RS41-SGP 2020-12-02 13:18:37 47.7397 19.6636 314 ° 11 km/h 183 m -10.1 m/s Budapest (HU) 403.20 MHz Lőrinci (HU) 0.00 km LOST
R3330097 RS41 2020-12-02 13:17:30 49.507 7.50673 196 ° 9 km/h 475 m -4.9 m/s Idar-Oberstein (DE) 402.70 MHz Ramstein-Miesenbach (DE) 0.00 km FOUND
R4020853 RS41-SGP 2020-12-02 13:17:30 -25.5184 -48.6637 156 ° 15 km/h 1965 m -12.5 m/s 403.00 MHz 0.00 km UNKNOWN
S0450235 RS41 2020-12-02 13:17:10 54.2846 13.5923 327 ° 20 km/h 545 m -3.7 m/s Greifswald (DE) 402.30 MHz Putbus (DE) 0.00 km UNKNOWN
R3761039 RS41-SG 2020-12-02 13:16:24 -37.8108 146.544 80 ° 4 km/h 844 m -5.8 m/s Melbourne (AU) 401.50 MHz Moe (AU) 0.00 km UNKNOWN
S2311044 RS41 2020-12-02 13:15:43 51.2247 7.20882 20 ° 9 km/h 499 m -5.4 m/s Essen (DE) 405.30 MHz Remscheid (DE) 0.00 km FOUND
R4410497 RS41 2020-12-02 13:12:31 -29.9648 -50.0986 126 ° 15 km/h 1568 m -12.1 m/s Porto Alegre (BR) 402.996 MHz 0.00 km UNKNOWN
R5120495 RS41 2020-12-02 13:11:35 42.7581 23.9981 70 ° 17 km/h 1887 m -15.6 m/s Sofia (BG) 405.30 MHz Cherven Bryag (BG) 0.00 km UNKNOWN
ME92223E3 M10 2020-12-02 13:10:24 43.5088 22.6507 48 ° 26 km/h 2864 m -14.3 m/s Niš (RS) 402.400 MHz Knjaževac (RS) 0.00 km UNKNOWN
ME0522ABF M10 2020-12-02 13:10:00 43.8915 -0.5323 191 ° 178 km/h 9549 m -7.2 m/s Bordeaux (FR) 402.000 MHz Mont-de-Marsan (FR) 0.00 km UNKNOWN
R4010543 2020-12-02 13:10:00 -22.775 -43.0844 238 ° 24 km/h 19102 m -18.4 m/s Galeão (BR) 405.301 MHz 0.00 km UNKNOWN
R2411179 RS41 2020-12-02 13:08:44 52.2066 6.6932 357 ° 7 km/h 382 m -2.6 m/s Meppen (DE) 404.50 MHz Hengelo (NL) 0.00 km FOUND
R3251042 RS41 2020-12-02 13:08:30 46.2719 16.6565 221 ° 13 km/h 199 m -13.0 m/s Zagreb (HR) 402.00 MHz Ludbreg (HR) 0.00 km UNKNOWN
S1440944 RS41-SG 2020-12-02 13:07:48 -34.9838 -57.4324 90 ° 156 km/h 10609 m -16.6 m/s Ezeiza (AR) 403.001 MHz 0.00 km UNKNOWN
S0430328 RS41 2020-12-02 13:05:17 50.5932 10.1576 316 ° 6 km/h 1103 m -5.8 m/s Meiningen (DE) 402.30 MHz Kaltennordheim (DE) 0.00 km FOUND
R4930866 RS41 2020-12-02 13:03:30 -23.2705 -50.7566 246 ° 13 km/h 978 m -10.5 m/s Londrina (BR) 402.972 MHz 0.00 km UNKNOWN
S1030894 RS41 2020-12-02 13:02:30 60.8397 23.3498 13 ° 44 km/h 635 m -11.9 m/s Jokioinen (FI) 403.000 MHz Forssa (FI) 0.00 km UNKNOWN
S3950990 RS41 2020-12-02 12:59:58 46.5401 20.568 226 ° 9 km/h 179 m -8.4 m/s Szeged (HU) 402.30 MHz Orosháza (HU) 0.00 km FOUND
S0441236 RS41 2020-12-02 12:59:47 45.2479 12.0912 220 ° 54 km/h 82 m -8.8 m/s San Pietro Capofiume (IT) 404.60 MHz Padua (IT) 0.00 km UNKNOWN
R4840536 RS41 2020-12-02 12:58:46 45.5447 9.47368 185 ° 6 km/h 205 m -5.3 m/s Milano-Linate (IT) 404.80 MHz Monza (IT) 0.00 km UNKNOWN
S2251313 RS41 2020-12-02 12:57:18 52.3596 14.3163 292 ° 4 km/h 293 m -3.6 m/s Lindenberg (DE) 405.10 MHz Müllrose (DE) 0.00 km FOUND
S1350809 RS41 2020-12-02 12:55:33 44.6891 -122.672 355 ° 33 km/h 2241 m -17.7 m/s Salem [OR] (USA) 401.651 MHz 0.00 km UNKNOWN
R3240653 RS41 2020-12-02 12:55:30 44.5236 15.9644 310 ° 26 km/h 1514 m -14.1 m/s Zadar (HR) 403.00 MHz Bihać (BA) 0.00 km UNKNOWN
R1020079 RS41 2020-12-02 12:54:50 40.0275 -2.76324 80 ° 94 km/h 31364 m -46.8 m/s Madrid (ES) 403.00 MHz Cuenca (ES) 0.00 km UNKNOWN
ME012277C M10 2020-12-02 12:54:49 45.0051 20.9943 65 ° 24 km/h 2049 m -9.3 m/s Belgrade (RS) 402.800 MHz Alibunar (RS) 0.00 km UNKNOWN
R2410053 RS41 2020-12-02 12:52:46 25.3487 122.24 52 ° 137 km/h 13639 m -9.9 m/s New Taipei (TW) 400.30 MHz 0.00 km UNKNOWN
S0550758 RS41-SG 2020-12-02 12:50:00 56.666 24.8359 293 ° 6 km/h 5324 m -18.5 m/s Skriveri (LV) 403.000 MHz Biržai (LT) 0.00 km UNKNOWN
LMS60BFB4 MK2LMS 2020-12-02 12:43:00 42.6854 -77.6658 43 ° 50 km/h 18473 m -13.7 m/s MHz 0.00 km UNKNOWN
R2330704 RS41 2020-12-02 12:41:57 48.0098 10.5 241 ° 9 km/h 813 m -4.2 m/s Altenstadt (DE) 402.50 MHz Mindelheim (DE) 0.00 km UNKNOWN
S1250218 RS41-SGP 2020-12-02 12:40:00 32.2505 -116.783 225 ° 33 km/h 20637 m -57.9 m/s San Diego [CA] (USA) 400.651 MHz 0.00 km UNKNOWN
S2030899 RS41 2020-12-02 12:33:02 59.3964 6.22653 52 ° 61 km/h 27969 m 6.6 m/s Stavanger (NO) 403.001 MHz 0.00 km UNKNOWN
D20039087 DFM17 2020-12-02 12:21:05 53.6698 9.53367 345 ° 13 km/h 296 m -11.9 m/s Pinneberg (DE) 402.011 MHz Stade (DE) 0.00 km UNKNOWN
N5040541 RS41 2020-12-02 12:20:30 61.9354 22.357 333 ° 9 km/h 15185 m 4.0 m/s Niinisalo (FI) 405.000 MHz Kankaanpää (FI) 0.00 km UNKNOWN
P2610327 RS41 2020-12-02 12:16:24 53.6894 9.82359 331 ° 15 km/h 309 m -5.5 m/s Sasel (DE) 402.70 MHz Pinneberg (DE) 0.00 km FOUND
P2221269 RS41 2020-12-02 12:13:00 60.3061 11.2299 11 ° 44 km/h 5829 m -19.0 m/s Oslo (NO) 405.50 MHz 0.00 km UNKNOWN
S3050728 RS41 2020-12-02 11:58:00 38.1199 24.3635 81 ° 37 km/h 5877 m -4.5 m/s Athens (GR) 402.000 MHz 0.00 km UNKNOWN
D18049682 DFM09 2020-12-02 11:47:30 45.7525 1.64977 173 ° 19 km/h 645 m -3.6 m/s 404.610 MHz Limoges (FR) 0.00 km UNKNOWN
LMS6C7576 LMS6 2020-12-02 11:40:00 38.7138 -77.0237 106 ° 126 km/h 10469 m 3.8 m/s Sterling [VA] (USA) 401.006 MHz 0.00 km UNKNOWN
R4630910 RS41-SGP 2020-12-02 11:34:00 59.4546 14.3018 30 ° 37 km/h 590 m -12.1 m/s Karlskoga (SE) 404.001 MHz Karlskoga (SE) 0.00 km UNKNOWN
S4631322 RS41 2020-12-02 11:31:00 60.0724 24.3009 15 ° 26 km/h 814 m -3.3 m/s Vaisala Oyj (FI) 402.700 MHz Siuntio (FI) 0.00 km FOUND
S4621033 RS41 2020-12-02 11:25:30 60.0578 24.3164 295 ° 9 km/h 1632 m -2.2 m/s Vaisala Oyj (FI) 402.001 MHz Siuntio (FI) 0.00 km UNKNOWN
ME0922EE2 M10 2020-12-02 11:23:30 42.9979 1.65175 183 ° 7 km/h 15191 m -7.0 m/s Toulouse (FR) 404.404 MHz Muret (FR) 0.00 km UNKNOWN
R4330757 RS41 2020-12-02 11:23:27 -36.5217 174.992 106 ° 37 km/h 810 m -16.1 m/s Whenuapai (NZ) 403.001 MHz 0.00 km UNKNOWN
S2710845 RS41-SG 2020-12-02 11:22:00 50.9504 -1.52851 58 ° 9 km/h 16687 m -6.8 m/s Larkhill (GB) 404.40 MHz Southampton (GB) 0.00 km UNKNOWN
P3430858 RS41 2020-12-02 11:12:47 48.0315 11.0064 318 ° 13 km/h 833 m -4.3 m/s Hohenpeissenberg (DE) 405.50 MHz Landsberg am Lech (DE) 0.00 km FOUND
N4220171 RS41 2020-12-02 11:04:30 52.3058 13.6059 19 ° 4 km/h 114 m -0.0 m/s Lindenberg (DE) 405.80 MHz Königs Wusterhausen (DE) 0.00 km FOUND